createdAt,value
2018-12-17T00:36:38.480Z,97482.70
2018-12-17T00:39:09.536Z,97471.59
2018-12-17T00:41:40.358Z,97474.83
2018-12-17T00:44:11.068Z,97477.19
2018-12-17T00:46:42.182Z,97464.53
2018-12-17T00:49:12.822Z,97472.25
2018-12-17T00:51:43.800Z,97466.50
2018-12-17T00:54:14.834Z,97473.89
2018-12-17T00:56:46.053Z,97473.80
2018-12-17T00:59:17.547Z,97478.03
2018-12-17T01:01:48.299Z,97471.44
2018-12-17T01:04:19.886Z,97471.81
2018-12-17T01:06:50.662Z,97469.59
2018-12-17T01:09:21.350Z,97471.06
2018-12-17T01:11:52.227Z,97470.45
2018-12-17T01:14:23.059Z,97469.58
2018-12-17T01:16:53.820Z,97465.60
2018-12-17T01:19:24.735Z,97472.75
2018-12-17T01:21:55.898Z,97461.45
2018-12-17T01:24:27.288Z,97470.56
2018-12-17T01:26:58.161Z,97466.76
2018-12-17T01:29:29.511Z,97473.89
2018-12-17T01:32:00.382Z,97464.69
2018-12-17T01:34:32.202Z,97451.52
2018-12-17T01:37:03.556Z,97455.72
2018-12-17T01:39:34.563Z,97447.78
2018-12-17T01:42:05.477Z,97453.94
2018-12-17T01:44:36.515Z,97455.34
2018-12-17T01:47:07.199Z,97453.45
2018-12-17T01:49:37.896Z,97444.24
2018-12-17T01:52:08.740Z,97451.67
2018-12-17T01:54:39.673Z,97447.93
2018-12-17T01:57:10.654Z,97451.38
2018-12-17T01:59:41.748Z,97441.19
2018-12-17T02:02:12.888Z,97450.33
2018-12-17T02:04:43.530Z,97445.82
2018-12-17T02:07:15.284Z,97455.66
2018-12-17T02:09:46.372Z,97450.42
2018-12-17T02:12:17.404Z,97445.30
2018-12-17T02:14:48.415Z,97441.21
2018-12-17T02:17:19.804Z,97439.85
2018-12-17T02:19:50.919Z,97443.88
2018-12-17T02:22:22.386Z,97441.63
2018-12-17T02:24:53.459Z,97430.94
2018-12-17T02:27:24.871Z,97437.52
2018-12-17T02:29:55.598Z,97438.93
2018-12-17T02:32:26.552Z,97437.40
2018-12-17T02:34:58.172Z,97428.11
2018-12-17T02:37:29.328Z,97426.20
2018-12-17T02:40:00.229Z,97426.08
2018-12-17T02:42:31.052Z,97431.81
2018-12-17T02:45:02.014Z,97432.50
2018-12-17T02:47:34.454Z,97427.75
2018-12-17T02:50:06.295Z,97439.28
2018-12-17T02:52:38.453Z,97435.41
2018-12-17T02:55:09.365Z,97405.39
2018-12-17T02:57:40.069Z,97436.44
2018-12-17T03:00:11.443Z,97429.61
2018-12-17T03:02:44.225Z,97430.36
2018-12-17T03:05:14.961Z,97432.30
2018-12-17T03:07:45.918Z,97434.18
2018-12-17T03:10:16.769Z,97431.14
2018-12-17T03:12:47.641Z,97440.44
2018-12-17T03:15:22.475Z,97430.45
2018-12-17T03:17:53.284Z,97428.83
2018-12-17T03:20:24.422Z,97425.07
2018-12-17T03:22:55.352Z,97427.70
2018-12-17T03:25:26.264Z,97428.62
2018-12-17T03:27:57.128Z,97428.97
2018-12-17T03:30:27.962Z,97425.76
2018-12-17T03:32:59.314Z,97426.55
2018-12-17T03:35:31.680Z,97425.92
2018-12-17T03:38:02.814Z,97430.02
2018-12-17T03:40:33.626Z,97437.89
2018-12-17T03:43:04.582Z,97426.43
2018-12-17T03:45:35.571Z,97426.43
2018-12-17T03:48:06.668Z,97432.86
2018-12-17T03:50:38.496Z,97434.34
2018-12-17T03:53:09.440Z,97434.27
2018-12-17T03:55:44.396Z,97431.64
2018-12-17T03:58:15.117Z,97434.77
2018-12-17T04:00:47.324Z,97433.05
2018-12-17T04:03:18.232Z,97432.01
2018-12-17T04:05:49.201Z,97437.23
2018-12-17T04:08:20.054Z,97438.78
2018-12-17T04:10:52.141Z,97437.54
2018-12-17T04:13:23.184Z,97443.83
2018-12-17T04:15:53.979Z,97444.61
2018-12-17T04:18:24.751Z,97442.69
2018-12-17T04:20:55.514Z,97446.37
2018-12-17T04:23:26.397Z,97444.54
2018-12-17T04:25:59.429Z,97443.95
2018-12-17T04:28:30.372Z,97449.92
2018-12-17T04:31:01.224Z,97450.91
2018-12-17T04:33:32.020Z,97450.47
2018-12-17T04:36:03.008Z,97452.58
2018-12-17T04:38:33.936Z,97448.70
2018-12-17T04:41:04.922Z,97447.42
2018-12-17T04:43:35.749Z,97453.86
2018-12-17T04:46:07.379Z,97456.75
2018-12-17T04:48:38.101Z,97455.65
2018-12-17T04:51:09.015Z,97449.75
2018-12-17T04:53:39.692Z,97450.66
2018-12-17T04:56:10.998Z,97456.47
2018-12-17T04:58:41.707Z,97452.71
2018-12-17T05:01:12.735Z,97457.96
2018-12-17T05:03:43.407Z,97452.58
2018-12-17T05:06:14.262Z,97462.16
2018-12-17T05:08:45.158Z,97460.73
2018-12-17T05:11:16.046Z,97448.95
2018-12-17T05:13:47.147Z,97453.02
2018-12-17T05:16:18.196Z,97460.23
2018-12-17T05:18:49.026Z,97460.02
2018-12-17T05:21:19.909Z,97458.62
2018-12-17T05:23:51.071Z,97455.20
2018-12-17T05:26:21.819Z,97451.47
2018-12-17T05:28:53.495Z,97450.01
2018-12-17T05:31:24.173Z,97456.70
2018-12-17T05:33:54.909Z,97444.51
2018-12-17T05:36:25.553Z,97447.15
2018-12-17T05:38:56.249Z,97444.72
2018-12-17T05:41:26.918Z,97451.28
2018-12-17T05:43:57.587Z,97450.17
2018-12-17T05:46:28.825Z,97456.32
2018-12-17T05:48:59.583Z,97456.70
2018-12-17T05:51:30.327Z,97452.72
2018-12-17T05:54:00.979Z,97454.27
2018-12-17T05:56:31.790Z,97446.75
2018-12-17T05:59:02.531Z,97449.17
2018-12-17T06:01:33.145Z,97446.91
2018-12-17T06:04:03.939Z,97452.34
2018-12-17T06:06:34.804Z,97447.41
2018-12-17T06:09:11.297Z,97452.50
2018-12-17T06:11:42.706Z,97450.70
2018-12-17T06:14:13.601Z,97453.77
2018-12-17T06:16:46.034Z,97453.28
2018-12-17T06:19:16.795Z,97446.75
2018-12-17T06:21:47.737Z,97455.23
2018-12-17T06:24:18.617Z,97455.80
2018-12-17T06:26:49.341Z,97451.47
2018-12-17T06:29:20.083Z,97454.80
2018-12-17T06:31:50.747Z,97460.92
2018-12-17T06:34:21.422Z,97455.59
2018-12-17T06:36:53.929Z,97453.83
2018-12-17T06:39:24.956Z,97454.76
2018-12-17T06:41:55.813Z,97452.82
2018-12-17T06:45:45.344Z,97459.05
2018-12-17T06:48:17.499Z,97460.91
2018-12-17T06:50:48.583Z,97460.64
2018-12-17T06:53:19.449Z,97457.09
2018-12-17T06:55:50.253Z,97458.10
2018-12-17T06:58:21.405Z,97459.42
2018-12-17T07:00:52.335Z,97462.98
2018-12-17T07:03:24.507Z,97463.86
2018-12-17T07:05:55.872Z,97470.01
2018-12-17T07:08:26.853Z,97469.57
2018-12-17T07:10:58.002Z,97468.36
2018-12-17T07:13:28.759Z,97471.19
2018-12-17T07:15:59.597Z,97475.89
2018-12-17T07:18:30.637Z,97475.52
2018-12-17T07:21:01.445Z,97476.79
2018-12-17T07:23:32.317Z,97473.84
2018-12-17T07:26:03.365Z,97473.34
2018-12-17T07:28:34.279Z,97475.95
2018-12-17T07:31:05.528Z,97482.84
2018-12-17T07:33:36.447Z,97483.55
2018-12-17T07:36:07.300Z,97483.81
2018-12-17T07:38:39.179Z,97476.06
2018-12-17T07:41:10.557Z,97485.20
2018-12-17T07:43:41.979Z,97486.47
2018-12-17T07:46:13.039Z,97487.75
2018-12-17T07:48:44.499Z,97486.47
2018-12-17T07:51:15.401Z,97486.37
2018-12-17T07:53:46.237Z,97492.95
2018-12-17T07:56:16.996Z,97488.78
2018-12-17T07:58:47.969Z,97495.20
2018-12-17T08:01:18.873Z,97497.92
2018-12-17T08:04:14.783Z,97492.14
2018-12-17T08:06:45.598Z,97487.97
2018-12-17T08:09:16.451Z,97493.21
2018-12-17T08:11:47.322Z,97497.31
2018-12-17T08:14:18.242Z,97492.83
2018-12-17T08:16:49.633Z,97499.11
2018-12-17T08:19:21.043Z,97491.77
2018-12-17T08:21:53.062Z,97483.52
2018-12-17T08:24:24.103Z,97491.80
2018-12-17T08:26:55.862Z,97496.71
2018-12-17T08:29:26.790Z,97492.21
2018-12-17T08:31:57.641Z,97492.04
2018-12-17T08:34:28.594Z,97486.58
2018-12-17T08:36:59.467Z,97480.97
2018-12-17T08:39:30.344Z,97474.41
2018-12-17T08:42:01.507Z,97479.09
2018-12-17T08:44:32.402Z,97474.76
2018-12-17T08:47:03.376Z,97478.30
2018-12-17T08:49:34.396Z,97464.31
2018-12-17T08:52:05.524Z,97466.36
2018-12-17T08:54:36.372Z,97462.82
2018-12-17T08:57:07.322Z,97464.17
2018-12-17T08:59:38.216Z,97469.17
2018-12-17T09:02:09.072Z,97459.81
2018-12-17T09:04:39.953Z,97460.98
2018-12-17T09:07:10.857Z,97458.16
2018-12-17T09:09:41.699Z,97455.61
2018-12-17T09:12:12.668Z,97449.29
2018-12-17T09:14:43.624Z,97456.05
2018-12-17T09:17:15.726Z,97455.17
2018-12-17T09:19:46.602Z,97459.20
2018-12-17T09:22:17.500Z,97447.69
2018-12-17T09:24:48.354Z,97453.76
2018-12-17T09:27:19.332Z,97456.24
2018-12-17T09:29:50.240Z,97449.48
2018-12-17T09:32:21.146Z,97455.48
2018-12-17T09:34:52.098Z,97458.28
2018-12-17T09:37:22.870Z,97452.88
2018-12-17T09:39:53.703Z,97449.22
2018-12-17T09:42:24.625Z,97441.63
2018-12-17T09:44:55.850Z,97441.41
2018-12-17T09:47:26.700Z,97445.81
2018-12-17T09:49:57.622Z,97434.89
2018-12-17T09:52:28.708Z,97439.00
2018-12-17T09:54:59.648Z,97428.95
2018-12-17T09:57:30.604Z,97407.98
2018-12-17T10:00:01.577Z,97436.50
2018-12-17T10:02:34.014Z,97435.47
2018-12-17T10:05:04.992Z,97431.31
2018-12-17T10:07:35.738Z,97439.04
2018-12-17T10:10:07.260Z,97436.80
2018-12-17T10:18:01.568Z,97430.66
2018-12-17T10:23:15.424Z,97428.02
2018-12-17T10:25:46.534Z,97424.14
2018-12-17T10:28:17.429Z,97425.34
2018-12-17T10:30:48.292Z,97422.16
2018-12-17T10:33:19.100Z,97422.71
2018-12-17T10:35:49.926Z,97411.45
2018-12-17T10:38:20.788Z,97408.84
2018-12-17T10:40:52.392Z,97404.93
2018-12-17T10:43:23.572Z,97413.84
2018-12-17T10:45:54.555Z,97409.87
2018-12-17T10:48:25.511Z,97390.19
2018-12-17T10:50:56.354Z,97400.36
2018-12-17T10:56:09.901Z,97396.05
2018-12-17T10:58:40.867Z,97403.88
2018-12-17T11:04:05.252Z,97393.13
2018-12-17T11:06:36.293Z,97396.13
2018-12-17T11:09:09.317Z,97395.61
2018-12-17T11:11:42.403Z,97397.77
2018-12-17T11:16:54.257Z,97389.05
2018-12-17T11:19:26.257Z,97390.46
2018-12-17T11:21:57.119Z,97383.62
2018-12-17T11:24:27.916Z,97386.18
2018-12-17T11:26:58.960Z,97380.38
2018-12-17T11:29:29.917Z,97383.58
2018-12-17T11:32:00.818Z,97379.98
2018-12-17T11:34:32.828Z,97385.86
2018-12-17T11:37:04.534Z,97383.38
2018-12-17T11:39:35.426Z,97391.62
2018-12-17T11:44:47.271Z,97386.30
2018-12-17T11:49:57.864Z,97384.30
2018-12-17T11:52:28.775Z,97388.98
2018-12-17T11:54:59.651Z,97383.34
2018-12-17T11:58:34.964Z,97389.98
2018-12-17T12:03:50.148Z,97382.10
2018-12-17T12:06:21.081Z,97380.66
2018-12-17T12:08:51.972Z,97383.73
2018-12-17T12:11:22.773Z,97380.27
2018-12-17T12:13:53.751Z,97383.38
2018-12-17T12:16:25.795Z,97381.98
2018-12-17T12:21:39.718Z,97387.22
2018-12-17T12:24:10.542Z,97389.27
2018-12-17T12:26:41.359Z,97387.46
2018-12-17T12:29:12.573Z,97387.98
2018-12-17T12:31:43.454Z,97388.22
2018-12-17T12:34:14.362Z,97392.66
2018-12-17T12:36:45.188Z,97394.98
2018-12-17T12:39:16.122Z,97399.26
2018-12-17T12:41:47.029Z,97400.69
2018-12-17T12:44:17.876Z,97397.85
2018-12-17T12:46:48.875Z,97401.69
2018-12-17T12:49:19.720Z,97405.13
2018-12-17T12:51:50.653Z,97403.73
2018-12-17T12:54:22.018Z,97414.22
2018-12-17T12:56:52.861Z,97414.73
2018-12-17T12:59:23.716Z,97416.38
2018-12-17T13:01:54.631Z,97420.89
2018-12-17T13:04:25.637Z,97418.84
2018-12-17T13:06:56.586Z,97420.73
2018-12-17T13:09:27.501Z,97430.36
2018-12-17T13:11:58.353Z,97431.37
2018-12-17T13:14:29.206Z,97429.92
2018-12-17T13:17:02.462Z,97436.85
2018-12-17T13:19:33.289Z,97437.37
2018-12-17T13:22:04.268Z,97445.05
2018-12-17T13:24:35.042Z,97447.25
2018-12-17T13:27:05.894Z,97450.13
2018-12-17T13:29:36.888Z,97454.66
2018-12-17T13:32:07.756Z,97455.49
2018-12-17T13:34:38.612Z,97456.57
2018-12-17T13:37:09.557Z,97454.29
2018-12-17T13:39:40.406Z,97452.38
2018-12-17T13:42:11.412Z,97452.81
2018-12-17T13:44:42.284Z,97457.17
2018-12-17T13:52:46.746Z,97466.13
2018-12-17T13:58:02.732Z,97471.73
2018-12-17T14:00:33.738Z,97472.17
2018-12-17T14:03:04.607Z,97470.17
2018-12-17T14:08:22.104Z,97479.45
2018-12-17T14:10:55.375Z,97449.36
2018-12-17T14:13:26.400Z,97474.41
2018-12-17T14:18:51.844Z,97476.73
2018-12-17T14:21:27.620Z,97474.13
2018-12-17T14:23:58.563Z,97469.21
2018-12-17T14:26:29.556Z,97474.24
2018-12-17T14:31:43.419Z,97478.28
2018-12-17T14:34:14.308Z,97478.97
2018-12-17T14:36:45.264Z,97479.31
2018-12-17T14:42:01.796Z,97474.88
2018-12-17T14:44:36.088Z,97480.88
2018-12-17T14:49:50.140Z,97490.31
2018-12-17T14:55:05.009Z,97490.44
2018-12-17T14:57:36.116Z,97493.63
2018-12-17T15:00:08.044Z,97497.52
2018-12-17T15:02:40.037Z,97497.02
2018-12-17T15:05:10.937Z,97493.34
2018-12-17T15:07:41.729Z,97494.22
2018-12-17T15:12:55.670Z,97492.92
2018-12-17T15:18:06.356Z,97494.73
2018-12-17T15:20:41.462Z,97498.30
2018-12-17T15:23:12.315Z,97498.82
2018-12-17T15:25:43.424Z,97494.14
2018-12-17T15:28:14.339Z,97497.17
2018-12-17T15:33:25.035Z,97503.77
2018-12-17T15:38:42.941Z,97501.72
2018-12-17T15:41:13.895Z,97487.59
2018-12-17T15:43:44.908Z,97504.34
2018-12-17T15:46:16.062Z,97504.34
2018-12-17T15:48:46.967Z,97510.16
2018-12-17T15:51:18.694Z,97512.91
2018-12-17T15:53:49.701Z,97523.66
2018-12-17T16:01:58.634Z,97512.83
2018-12-17T16:10:05.162Z,97519.14
2018-12-17T16:12:35.958Z,97516.44
2018-12-17T16:15:07.620Z,97517.77
2018-12-17T16:17:40.044Z,97514.70
2018-12-17T16:20:10.967Z,97522.63
2018-12-17T16:22:41.928Z,97523.90
2018-12-17T16:25:12.868Z,97533.69
2018-12-17T16:27:44.471Z,97531.34
2018-12-17T16:30:17.397Z,97540.44
2018-12-17T16:32:48.358Z,97539.27
2018-12-17T16:35:19.397Z,97543.34
2018-12-17T16:37:50.345Z,97485.46
2018-12-17T16:40:21.435Z,97548.77
2018-12-17T16:42:53.108Z,97549.71
2018-12-17T16:45:24.277Z,97551.16
2018-12-17T16:47:55.314Z,97552.44
2018-12-17T16:50:26.639Z,97553.11
2018-12-17T16:52:57.691Z,97559.73
2018-12-17T16:55:28.838Z,97560.23
2018-12-17T16:57:59.812Z,97561.71
2018-12-17T17:00:30.921Z,97565.23
2018-12-17T17:03:01.850Z,97569.17
2018-12-17T17:05:32.879Z,97566.85
2018-12-17T17:11:24.969Z,97574.97
2018-12-17T17:13:55.857Z,97574.84
2018-12-17T17:16:26.863Z,97574.29
2018-12-17T17:18:57.782Z,97581.84
2018-12-17T17:21:28.686Z,97578.16
2018-12-17T17:23:59.480Z,97573.06
2018-12-17T17:26:30.449Z,97575.43
2018-12-17T17:29:11.574Z,97577.11
2018-12-17T17:31:42.506Z,97574.66
2018-12-17T17:34:13.346Z,97578.83
2018-12-17T17:36:44.346Z,97586.14
2018-12-17T17:39:15.605Z,97575.55
2018-12-17T17:41:46.765Z,97577.83
2018-12-17T17:44:18.177Z,97587.97
2018-12-17T17:47:13.947Z,97586.39
2018-12-17T17:49:44.931Z,97592.30
2018-12-17T17:52:15.814Z,97594.76
2018-12-17T17:54:46.690Z,97595.69
2018-12-17T17:57:17.665Z,97596.81
2018-12-17T17:59:48.618Z,97597.75
2018-12-17T18:02:39.974Z,97596.09
2018-12-17T18:12:37.083Z,97605.34
2018-12-17T18:15:08.382Z,97608.27
2018-12-17T18:17:55.167Z,97620.12
2018-12-17T18:20:26.357Z,97613.74
2018-12-17T18:22:57.701Z,97614.06
2018-12-17T18:25:28.885Z,97615.34
2018-12-17T18:27:59.719Z,97619.66
2018-12-17T18:30:30.910Z,97617.58
2018-12-17T18:33:01.802Z,97616.05
2018-12-17T18:36:02.145Z,97623.62
2018-12-17T18:38:33.098Z,97620.59
2018-12-17T18:44:25.761Z,97626.76
2018-12-17T18:46:56.748Z,97630.31
2018-12-17T18:49:27.664Z,97636.06
2018-12-17T18:51:58.588Z,97637.75
2018-12-17T18:54:29.610Z,97638.80
2018-12-17T18:57:00.593Z,97641.03
2018-12-17T19:00:20.319Z,97647.55
2018-12-17T19:02:52.250Z,97637.70
2018-12-17T19:05:36.116Z,97642.78
2018-12-17T19:08:07.107Z,97644.37
2018-12-17T19:10:42.915Z,97648.60
2018-12-17T19:13:13.969Z,97647.41
2018-12-17T19:15:45.411Z,97652.86
2018-12-17T19:18:16.362Z,97655.77
2018-12-17T19:21:01.479Z,97659.24
2018-12-17T19:23:32.546Z,97658.81
2018-12-17T19:26:03.704Z,97660.49
2018-12-17T19:28:34.550Z,97651.59
2018-12-17T19:31:10.885Z,97655.91
2018-12-17T19:37:12.408Z,97658.59
2018-12-17T19:39:43.248Z,97662.08
2018-12-17T19:42:14.067Z,97659.09
2018-12-17T19:44:44.842Z,97667.97
2018-12-17T19:47:29.472Z,97662.50
2018-12-17T19:50:00.518Z,97667.80
2018-12-17T19:52:31.440Z,97665.38
2018-12-17T19:55:02.475Z,97669.78
2018-12-17T19:57:33.219Z,97671.84
2018-12-17T20:00:04.421Z,97675.95
2018-12-17T20:02:35.289Z,97681.00
2018-12-17T20:05:06.273Z,97680.00
2018-12-17T20:07:45.879Z,97682.96
2018-12-17T20:10:24.775Z,97686.36
2018-12-17T20:13:10.347Z,97681.25
2018-12-17T20:15:41.963Z,97688.16
2018-12-17T20:18:12.763Z,97688.56
2018-12-17T20:20:51.197Z,97679.56
2018-12-17T20:23:21.957Z,97695.88
2018-12-17T20:25:52.709Z,97689.62
2018-12-17T20:28:23.526Z,97701.20
2018-12-17T20:30:54.304Z,97702.47
2018-12-17T20:33:25.097Z,97700.30
2018-12-17T20:36:37.785Z,97700.70
2018-12-17T20:42:50.012Z,97695.67
2018-12-17T20:45:20.997Z,97697.09
2018-12-17T20:47:51.738Z,97698.66
2018-12-17T20:51:00.379Z,97701.27
2018-12-17T20:53:52.385Z,97698.28
2018-12-17T20:56:23.382Z,97699.94
2018-12-17T20:59:40.867Z,97700.92
2018-12-17T21:02:11.585Z,97714.58
2018-12-17T21:04:42.319Z,97713.02
2018-12-17T21:07:16.431Z,97715.39
2018-12-17T21:09:47.140Z,97721.53
2018-12-17T21:12:21.328Z,97716.92
2018-12-17T21:14:52.125Z,97716.48
2018-12-17T21:17:31.767Z,97718.11
2018-12-17T21:20:02.549Z,97713.09
2018-12-17T21:22:33.417Z,97718.25
2018-12-17T21:25:12.030Z,97720.69
2018-12-17T21:28:17.909Z,97720.20
2018-12-17T21:30:49.845Z,97716.72
2018-12-17T21:33:20.625Z,97722.61
2018-12-17T21:35:51.344Z,97714.87
2018-12-17T21:38:22.122Z,97719.39
2018-12-17T21:41:03.844Z,97707.93
2018-12-17T21:43:36.205Z,97715.56
2018-12-17T21:46:07.252Z,97717.70
2018-12-17T21:48:37.942Z,97714.72
2018-12-17T21:51:15.970Z,97719.06
2018-12-17T21:53:57.797Z,97719.77
2018-12-17T21:56:28.690Z,97717.70
2018-12-17T21:59:07.110Z,97716.33
2018-12-17T22:01:37.916Z,97719.08
2018-12-17T22:04:42.192Z,97714.06
2018-12-17T22:07:12.948Z,97711.52
2018-12-17T22:09:43.662Z,97719.08
2018-12-17T22:12:18.168Z,97723.98
2018-12-17T22:14:49.007Z,97718.73
2018-12-17T22:17:19.804Z,97716.47
2018-12-17T22:19:50.576Z,97724.22
2018-12-17T22:22:22.343Z,97723.70
2018-12-17T22:24:53.052Z,97723.77
2018-12-17T22:27:23.868Z,97722.56
2018-12-17T22:29:54.612Z,97726.52
2018-12-17T22:32:32.626Z,97717.97
2018-12-17T22:35:03.332Z,97718.03
2018-12-17T22:41:03.760Z,97725.95
2018-12-17T22:43:34.496Z,97718.16
2018-12-17T22:46:05.388Z,97709.65
2018-12-17T22:48:44.163Z,97717.52
2018-12-17T22:51:14.957Z,97718.92
2018-12-17T22:53:53.451Z,97721.59
2018-12-17T22:56:32.321Z,97725.89
2018-12-17T22:59:10.891Z,97723.23
2018-12-17T23:01:49.604Z,97731.26
2018-12-17T23:04:53.335Z,97727.48
2018-12-17T23:07:26.038Z,97730.06
2018-12-17T23:10:25.687Z,97727.44
2018-12-17T23:13:22.010Z,97733.99
2018-12-17T23:16:05.167Z,97732.41
2018-12-17T23:18:41.742Z,97733.64
2018-12-17T23:21:15.202Z,97730.42
2018-12-17T23:23:55.526Z,97729.10
2018-12-17T23:26:26.433Z,97728.41
2018-12-17T23:28:57.299Z,97731.16
2018-12-17T23:31:36.630Z,97738.51
2018-12-17T23:34:15.584Z,97737.16
2018-12-17T23:36:46.473Z,97740.73
2018-12-17T23:39:24.882Z,97739.05
2018-12-17T23:41:55.868Z,97742.31
2018-12-17T23:44:26.534Z,97737.70
2018-12-17T23:47:00.927Z,97738.18
2018-12-17T23:49:39.414Z,97738.25
2018-12-17T23:52:18.112Z,97740.73
2018-12-17T23:54:48.954Z,97740.67
2018-12-17T23:57:19.610Z,97746.25
